createdAt,value
2019-04-20T00:02:04.385Z,8.43
2019-04-20T00:04:30.998Z,7.92
2019-04-20T00:06:56.497Z,7.97
2019-04-20T00:09:29.849Z,7.70
2019-04-20T00:12:06.223Z,7.97
2019-04-20T00:14:28.741Z,8.50
2019-04-20T00:16:52.792Z,8.58
2019-04-20T00:19:26.445Z,8.93
2019-04-20T00:22:01.521Z,7.42
2019-04-20T00:24:34.078Z,7.78
2019-04-20T00:27:22.136Z,8.70
2019-04-20T00:29:46.353Z,8.35
2019-04-20T00:32:11.538Z,7.90
2019-04-20T00:34:33.126Z,9.05
2019-04-20T00:36:56.202Z,8.28
2019-04-20T00:39:23.896Z,7.58
2019-04-20T00:41:56.233Z,8.85
2019-04-20T00:44:27.532Z,8.05
2019-04-20T00:47:02.726Z,7.47
2019-04-20T00:49:36.047Z,8.50
2019-04-20T00:52:17.074Z,7.90
2019-04-20T00:54:17.965Z,8.30
2019-04-20T00:56:45.531Z,8.80
2019-04-20T00:59:24.099Z,8.20
2019-04-20T01:02:00.572Z,8.20
2019-04-20T01:04:31.683Z,8.90
2019-04-20T01:06:58.945Z,8.58
2019-04-20T01:09:20.705Z,8.60
2019-04-20T01:11:49.730Z,8.68
2019-04-20T01:14:21.079Z,8.18
2019-04-20T01:16:52.929Z,8.18
2019-04-20T01:19:15.789Z,7.85
2019-04-20T01:21:49.829Z,8.53
2019-04-20T01:24:20.009Z,9.05
2019-04-20T01:26:48.916Z,8.25
2019-04-20T01:29:21.731Z,9.20
2019-04-20T01:31:56.044Z,9.20
2019-04-20T01:34:26.604Z,8.20
2019-04-20T01:36:55.666Z,8.25
2019-04-20T01:39:17.264Z,8.63
2019-04-20T01:41:37.159Z,8.53
2019-04-20T01:44:05.097Z,8.70
2019-04-20T01:46:33.823Z,9.28
2019-04-20T01:49:09.165Z,9.20
2019-04-20T01:51:39.283Z,9.75
2019-04-20T01:54:15.934Z,9.58
2019-04-20T01:56:43.443Z,9.60
2019-04-20T01:59:15.992Z,10.55
2019-04-20T02:01:42.407Z,9.40
2019-04-20T02:04:20.476Z,9.65
2019-04-20T02:06:50.389Z,9.95
2019-04-20T02:09:19.086Z,8.70
2019-04-20T02:11:47.386Z,9.65
2019-04-20T02:14:14.292Z,9.80
2019-04-20T02:16:47.354Z,9.93
2019-04-20T02:19:29.113Z,9.38
2019-04-20T02:21:55.441Z,10.55
2019-04-20T02:24:10.931Z,10.05
2019-04-20T02:26:38.865Z,9.80
2019-04-20T02:29:32.461Z,9.88
2019-04-20T02:37:24.579Z,9.63
2019-04-20T02:42:24.901Z,9.68
2019-04-20T02:44:58.815Z,9.73
2019-04-20T02:47:24.639Z,9.70
2019-04-20T02:50:03.200Z,9.63
2019-04-20T02:54:45.026Z,9.80
2019-04-20T02:57:17.928Z,10.55
2019-04-20T02:59:59.547Z,9.18
2019-04-20T03:01:59.439Z,9.85
2019-04-20T03:04:20.355Z,10.08
2019-04-20T03:06:54.785Z,9.63
2019-04-20T03:09:25.699Z,9.28
2019-04-20T03:14:22.805Z,10.35
2019-04-20T03:16:50.331Z,10.05
2019-04-20T03:19:19.802Z,11.35
2019-04-20T03:21:58.552Z,10.40
2019-04-20T03:24:28.167Z,9.63
2019-04-20T03:27:00.772Z,9.85
2019-04-20T03:29:37.318Z,9.63
2019-04-20T03:37:17.457Z,9.83
2019-04-20T03:39:32.397Z,10.63
2019-04-20T03:41:50.297Z,11.40
2019-04-20T03:44:20.968Z,10.60
2019-04-20T03:46:52.233Z,10.55
2019-04-20T03:49:38.465Z,10.15
2019-04-20T03:52:02.595Z,10.40
2019-04-20T03:54:38.668Z,9.73
2019-04-20T03:57:23.522Z,10.20
2019-04-20T03:59:50.990Z,10.40
2019-04-20T04:02:29.700Z,9.63
2019-04-20T04:05:07.301Z,8.93
2019-04-20T04:07:26.524Z,9.63
2019-04-20T04:10:04.549Z,10.38
2019-04-20T22:38:46.572Z,17.00
2019-04-20T22:41:13.651Z,18.32
2019-04-20T22:43:38.387Z,15.85
2019-04-20T22:46:05.505Z,15.28
2019-04-20T22:48:33.313Z,15.45
2019-04-20T22:51:20.636Z,15.70
2019-04-20T22:53:44.025Z,15.78
2019-04-20T22:56:23.132Z,15.05
2019-04-20T22:58:43.284Z,15.85
2019-04-20T23:01:03.949Z,15.45
2019-04-20T23:03:28.175Z,15.55
2019-04-20T23:05:56.529Z,15.50
2019-04-20T23:08:24.727Z,16.95
2019-04-20T23:10:53.475Z,17.02
2019-04-20T23:13:30.378Z,16.10
2019-04-20T23:15:57.299Z,18.35
2019-04-20T23:18:26.511Z,17.45
2019-04-20T23:21:00.729Z,18.92
2019-04-20T23:23:27.059Z,18.20
2019-04-20T23:25:53.370Z,17.85
2019-04-20T23:28:22.601Z,21.48
2019-04-20T23:30:51.892Z,17.75
2019-04-20T23:33:20.158Z,19.52
2019-04-20T23:35:52.415Z,20.40
2019-04-20T23:38:21.105Z,19.75
2019-04-20T23:40:45.939Z,19.95
2019-04-20T23:43:25.466Z,18.65
2019-04-20T23:46:01.129Z,20.02
2019-04-20T23:49:13.548Z,19.20
2019-04-20T23:51:54.163Z,20.92
2019-04-20T23:54:12.384Z,19.73
2019-04-20T23:56:33.696Z,17.90
2019-04-20T23:59:02.360Z,19.45
